Time;durP1;ratioP1;P1;durP2;ratioP2;P2;SDS_P1;SDS_P2;PMS_P1;PMS_P2;Temp;Humidity;BMP_temperature;BMP_pressure;BME280_temperature;BME280_humidity;BME280_pressure;Samples;Min_cycle;Max_cycle;Signal;HPM_P1;HPM_P2
2023/10/23 00:00:50;;;;;;;14.10;5.60;;;;;;;9.97;100.00;101088.53;5037706;28;20120;-72
2023/10/23 00:03:15;;;;;;;19.10;6.88;;;;;;;9.94;100.00;101086.03;5044016;28;20025;-71
2023/10/23 00:05:41;;;;;;;19.52;6.68;;;;;;;9.96;100.00;101085.00;5041904;28;20049;-72
2023/10/23 00:08:06;;;;;;;16.77;5.47;;;;;;;9.97;100.00;101085.84;5040426;28;20056;-72
2023/10/23 00:10:31;;;;;;;18.63;6.53;;;;;;;9.96;100.00;101087.66;5040188;28;20531;-71
2023/10/23 00:12:57;;;;;;;16.92;5.55;;;;;;;9.91;100.00;101088.94;5042951;28;20071;-71
2023/10/23 00:15:22;;;;;;;18.15;5.80;;;;;;;9.92;100.00;101093.34;5040869;28;20034;-72
2023/10/23 00:17:47;;;;;;;16.58;5.80;;;;;;;9.91;100.00;101097.00;5036912;28;20029;-72
2023/10/23 00:20:13;;;;;;;16.95;5.78;;;;;;;9.83;100.00;101093.97;5044961;28;20465;-71
2023/10/23 00:22:38;;;;;;;16.77;6.32;;;;;;;9.83;100.00;101089.47;5046327;28;20021;-71
2023/10/23 00:25:03;;;;;;;18.35;6.07;;;;;;;9.79;100.00;101088.81;5039775;28;20104;-72
2023/10/23 00:27:29;;;;;;;17.40;6.45;;;;;;;9.79;100.00;101091.50;5041580;28;20025;-71
2023/10/23 00:29:54;;;;;;;17.83;6.07;;;;;;;9.78;100.00;101089.78;5039772;28;20033;-72
2023/10/23 00:32:19;;;;;;;18.05;5.90;;;;;;;9.78;100.00;101084.41;5017022;28;20026;-71
2023/10/23 00:34:45;;;;;;;18.50;6.85;;;;;;;9.74;100.00;101096.28;5029767;28;20017;-71
2023/10/23 00:37:10;;;;;;;17.02;6.60;;;;;;;9.77;100.00;101093.41;5020811;28;20029;-71
2023/10/23 00:39:35;;;;;;;18.15;6.43;;;;;;;9.70;100.00;101099.28;5042000;28;20116;-72
2023/10/23 00:42:01;;;;;;;17.48;5.45;;;;;;;9.67;100.00;101100.34;5038878;28;20714;-72
2023/10/23 00:44:27;;;;;;;20.17;6.47;;;;;;;9.72;100.00;101098.22;5038720;28;20036;-72
2023/10/23 00:46:53;;;;;;;19.75;6.63;;;;;;;9.70;100.00;101100.13;5028633;28;20112;-71
2023/10/23 00:49:19;;;;;;;20.30;6.30;;;;;;;9.70;100.00;101099.28;5038576;28;20116;-72
2023/10/23 00:51:45;;;;;;;17.08;5.93;;;;;;;9.66;100.00;101106.66;5035528;28;20645;-72
2023/10/23 00:54:10;;;;;;;16.35;5.57;;;;;;;9.62;100.00;101107.84;5037859;28;20399;-72
2023/10/23 00:56:36;;;;;;;16.40;5.65;;;;;;;9.60;100.00;101109.75;5021317;28;20057;-72
2023/10/23 00:59:01;;;;;;;16.67;5.93;;;;;;;9.59;100.00;101110.69;5020258;28;20386;-71
2023/10/23 01:01:28;;;;;;;18.20;6.25;;;;;;;9.60;100.00;101105.28;5047253;28;20037;-73
2023/10/23 01:03:54;;;;;;;17.08;6.20;;;;;;;9.60;100.00;101113.31;5042172;28;20106;-73
2023/10/23 01:06:20;;;;;;;20.67;6.45;;;;;;;9.59;100.00;101116.06;5038469;28;20045;-74
2023/10/23 01:08:46;;;;;;;17.58;5.63;;;;;;;9.62;100.00;101118.59;5022814;28;20561;-74
2023/10/23 01:11:11;;;;;;;16.90;6.07;;;;;;;9.56;100.00;101113.59;5039747;28;20124;-73
2023/10/23 01:13:38;;;;;;;16.83;5.85;;;;;;;9.53;100.00;101129.88;5041754;28;20029;-73
2023/10/23 01:16:03;;;;;;;16.63;5.35;;;;;;;9.53;100.00;101124.53;5038849;28;20021;-74
2023/10/23 01:18:29;;;;;;;23.13;5.80;;;;;;;9.52;100.00;101130.88;5019853;28;20512;-74
2023/10/23 01:20:55;;;;;;;19.40;6.10;;;;;;;9.53;100.00;101124.53;5038041;28;20490;-73
2023/10/23 01:23:26;;;;;;;14.60;4.90;;;;;;;9.52;100.00;101129.03;5039865;28;20029;-74
2023/10/23 01:25:52;;;;;;;18.10;5.35;;;;;;;9.51;100.00;101124.63;5039612;28;20489;-74
2023/10/23 01:28:17;;;;;;;18.90;6.30;;;;;;;9.54;100.00;101127.09;5043098;28;20017;-73
2023/10/23 01:30:43;;;;;;;18.58;6.07;;;;;;;9.53;100.00;101121.84;5033939;28;20230;-73
2023/10/23 01:33:08;;;;;;;17.60;5.65;;;;;;;9.53;100.00;101113.78;5027182;28;20024;-74
2023/10/23 01:35:33;;;;;;;21.42;6.03;;;;;;;9.52;100.00;101123.69;5044371;28;20037;-73
2023/10/23 01:37:59;;;;;;;18.40;6.15;;;;;;;9.48;100.00;101115.94;5038231;28;20056;-74
2023/10/23 01:40:24;;;;;;;15.38;5.45;;;;;;;9.50;100.00;101119.34;5041294;28;20341;-73
2023/10/23 01:42:49;;;;;;;16.58;5.18;;;;;;;9.39;100.00;101115.53;5017002;28;20025;-74
2023/10/23 01:45:15;;;;;;;16.17;5.97;;;;;;;9.36;100.00;101112.22;5036400;28;20029;-74
2023/10/23 01:47:40;;;;;;;15.93;5.35;;;;;;;9.39;100.00;101114.69;5038666;28;20406;-74
2023/10/23 01:50:06;;;;;;;16.33;5.38;;;;;;;9.32;100.00;101116.91;5039895;28;20031;-73
2023/10/23 01:52:31;;;;;;;15.90;5.47;;;;;;;9.26;100.00;101111.94;5034144;28;20061;-73
2023/10/23 01:54:58;;;;;;;17.75;5.55;;;;;;;9.25;100.00;101119.13;5029623;28;20056;-74
2023/10/23 01:57:23;;;;;;;15.65;5.90;;;;;;;9.32;100.00;101111.53;5040797;28;20072;-73
2023/10/23 01:59:49;;;;;;;15.20;5.65;;;;;;;9.24;100.00;101117.38;5021953;28;20534;-73
2023/10/23 02:02:14;;;;;;;20.13;6.43;;;;;;;9.22;100.00;101113.06;5036125;28;20021;-73
2023/10/23 02:04:39;;;;;;;16.90;5.57;;;;;;;9.26;100.00;101112.78;5038703;28;20170;-73
2023/10/23 02:07:05;;;;;;;16.75;5.57;;;;;;;9.19;100.00;101115.97;5040547;28;20049;-73
2023/10/23 02:09:31;;;;;;;13.98;5.32;;;;;;;9.15;100.00;101114.41;5041331;28;20397;-73
2023/10/23 02:11:57;;;;;;;16.45;5.63;;;;;;;9.20;100.00;101117.69;5022928;28;20107;-73
2023/10/23 02:14:22;;;;;;;16.40;5.43;;;;;;;9.09;100.00;101126.38;5030325;28;20033;-73
2023/10/23 02:16:47;;;;;;;17.17;5.40;;;;;;;9.10;100.00;101126.28;5023407;28;20397;-73
2023/10/23 02:19:12;;;;;;;19.60;5.47;;;;;;;9.07;100.00;101128.31;5038011;28;20183;-72
2023/10/23 02:21:38;;;;;;;16.00;5.70;;;;;;;9.06;100.00;101127.47;5040406;28;20466;-72
2023/10/23 02:24:03;;;;;;;15.30;5.45;;;;;;;9.10;100.00;101138.84;5039253;28;20269;-72
2023/10/23 02:26:29;;;;;;;18.63;5.88;;;;;;;9.03;100.00;101140.19;5044653;28;20087;-72
2023/10/23 02:28:55;;;;;;;18.48;6.38;;;;;;;9.02;100.00;101142.00;5012107;28;20498;-72
2023/10/23 02:31:20;;;;;;;13.93;5.50;;;;;;;8.99;100.00;101136.84;5038372;28;20033;-72
2023/10/23 02:33:46;;;;;;;18.30;5.65;;;;;;;9.00;100.00;101138.56;5028184;28;20032;-73
2023/10/23 02:36:11;;;;;;;16.80;5.45;;;;;;;9.04;100.00;101136.56;5041430;28;20501;-72
2023/10/23 02:38:36;;;;;;;16.08;5.30;;;;;;;8.98;100.00;101134.25;5022218;28;20025;-72
2023/10/23 02:41:02;;;;;;;18.42;5.88;;;;;;;8.95;100.00;101143.34;5044905;28;20025;-72
2023/10/23 02:43:27;;;;;;;16.73;5.43;;;;;;;8.97;100.00;101144.09;5041457;28;20494;-72
2023/10/23 02:45:52;;;;;;;15.52;5.00;;;;;;;8.99;100.00;101141.31;5026859;28;20079;-72
2023/10/23 02:48:18;;;;;;;17.60;5.63;;;;;;;9.01;100.00;101139.44;5044518;28;20028;-73
2023/10/23 02:50:57;;;;;;;18.05;5.38;;;;;;;8.98;100.00;101140.47;5042508;28;20513;-72
2023/10/23 02:53:23;;;;;;;21.80;6.03;;;;;;;8.98;100.00;101145.84;5038093;28;20485;-72
2023/10/23 02:55:49;;;;;;;17.13;6.00;;;;;;;8.82;100.00;101143.25;5042714;28;20029;-72
2023/10/23 02:58:16;;;;;;;17.48;5.43;;;;;;;8.80;100.00;101142.47;5042960;28;20269;-73
2023/10/23 03:00:42;;;;;;;16.30;6.07;;;;;;;8.78;100.00;101147.06;5040478;28;20029;-72
2023/10/23 03:03:08;;;;;;;16.80;6.60;;;;;;;8.76;100.00;101143.63;5043120;28;20040;-72
2023/10/23 03:05:34;;;;;;;15.07;5.38;;;;;;;8.71;100.00;101141.22;5042866;28;20041;-72
2023/10/23 03:07:59;;;;;;;17.05;5.22;;;;;;;8.69;100.00;101137.75;5047525;28;20079;-72
2023/10/23 03:10:24;;;;;;;17.77;6.15;;;;;;;8.70;100.00;101142.16;5041145;28;20079;-72
2023/10/23 03:12:50;;;;;;;18.13;4.95;;;;;;;8.61;100.00;101147.22;5040009;28;20031;-72
2023/10/23 03:15:16;;;;;;;17.52;5.70;;;;;;;8.66;100.00;101135.28;5025155;28;20390;-73
2023/10/23 03:17:42;;;;;;;18.25;5.57;;;;;;;8.56;100.00;101134.09;5044464;28;20022;-72
2023/10/23 03:20:08;;;;;;;16.00;5.55;;;;;;;8.57;100.00;101142.03;5039655;28;20033;-72
2023/10/23 03:22:34;;;;;;;18.85;5.45;;;;;;;8.46;100.00;101144.50;5039783;28;20549;-72
2023/10/23 03:24:59;;;;;;;18.13;5.90;;;;;;;8.44;100.00;101138.38;5023415;28;20025;-72
2023/10/23 03:27:24;;;;;;;14.07;5.70;;;;;;;8.47;100.00;101142.69;5027685;28;20029;-72
2023/10/23 03:29:50;;;;;;;16.13;5.57;;;;;;;8.47;100.00;101140.03;5039119;28;20174;-74
2023/10/23 03:32:15;;;;;;;15.93;5.05;;;;;;;8.44;100.00;101135.69;5033108;28;20500;-73
2023/10/23 03:34:40;;;;;;;19.48;5.78;;;;;;;8.47;100.00;101142.69;5033212;28;20546;-74
2023/10/23 03:37:06;;;;;;;15.93;5.18;;;;;;;8.49;100.00;101136.31;5043662;28;20032;-74
2023/10/23 03:39:31;;;;;;;16.58;5.57;;;;;;;8.45;100.00;101139.22;5041602;28;20077;-74
2023/10/23 03:41:56;;;;;;;18.70;5.97;;;;;;;8.42;100.00;101142.06;5040122;28;20368;-74
2023/10/23 03:44:21;;;;;;;16.48;6.03;;;;;;;8.40;100.00;101145.72;5040365;28;20091;-73
2023/10/23 03:46:47;;;;;;;17.17;5.68;;;;;;;8.37;100.00;101145.88;5023443;28;20036;-73
2023/10/23 03:49:12;;;;;;;16.27;5.15;;;;;;;8.37;100.00;101156.59;5039805;28;20030;-74
2023/10/23 03:51:37;;;;;;;16.27;5.80;;;;;;;8.41;100.00;101146.56;5041217;28;20052;-73
2023/10/23 03:54:03;;;;;;;18.45;6.38;;;;;;;8.36;100.00;101149.53;5041895;28;20087;-73
2023/10/23 03:56:28;;;;;;;15.73;4.95;;;;;;;8.38;100.00;101147.59;5040421;28;20037;-73
2023/10/23 03:58:53;;;;;;;18.33;5.78;;;;;;;8.35;100.00;101146.94;5041598;28;20045;-73
2023/10/23 04:01:18;;;;;;;16.92;5.18;;;;;;;8.32;100.00;101145.31;5041962;28;20051;-73
2023/10/23 04:03:44;;;;;;;17.73;5.40;;;;;;;8.30;100.00;101155.25;5024347;28;20036;-74
2023/10/23 04:06:09;;;;;;;16.67;4.72;;;;;;;8.26;100.00;101155.50;5039302;28;20052;-74
2023/10/23 04:08:34;;;;;;;16.52;5.38;;;;;;;8.22;100.00;101154.81;5027552;28;20021;-73
2023/10/23 04:11:00;;;;;;;16.65;5.47;;;;;;;8.18;100.00;101158.63;5042631;28;20029;-74
2023/10/23 04:13:25;;;;;;;15.70;5.65;;;;;;;8.14;100.00;101157.97;5033619;28;20122;-73
2023/10/23 04:15:55;;;;;;;13.90;4.82;;;;;;;8.15;100.00;101153.47;5043057;28;20041;-74
2023/10/23 04:18:20;;;;;;;15.45;4.82;;;;;;;8.12;100.00;101148.28;5036709;28;20025;-74
2023/10/23 04:20:46;;;;;;;13.18;4.60;;;;;;;8.12;100.00;101151.81;5043033;28;20033;-74
2023/10/23 04:23:11;;;;;;;14.57;4.85;;;;;;;8.00;100.00;101152.53;5042466;28;20104;-73
2023/10/23 04:25:36;;;;;;;15.27;4.70;;;;;;;8.00;100.00;101153.38;5043503;28;20428;-73
2023/10/23 04:28:03;;;;;;;15.15;4.63;;;;;;;8.00;100.00;101166.78;5022351;28;20025;-74
2023/10/23 04:30:28;;;;;;;15.48;5.20;;;;;;;7.95;100.00;101160.84;5039359;28;20063;-74
2023/10/23 04:32:54;;;;;;;14.13;4.50;;;;;;;7.88;100.00;101164.81;5037874;28;20052;-74
2023/10/23 04:35:19;;;;;;;16.70;5.28;;;;;;;7.87;100.00;101171.09;5039937;28;20517;-73
2023/10/23 04:37:44;;;;;;;14.05;4.72;;;;;;;7.83;100.00;101164.19;5037679;28;20027;-74
2023/10/23 04:40:10;;;;;;;15.15;4.90;;;;;;;7.84;100.00;101166.78;5039280;28;20074;-72
2023/10/23 04:42:35;;;;;;;15.43;4.38;;;;;;;7.83;100.00;101161.53;5045661;28;20044;-73
2023/10/23 04:45:01;;;;;;;11.82;4.03;;;;;;;7.89;100.00;101169.19;5037331;28;20029;-72
2023/10/23 04:47:26;;;;;;;12.77;4.07;;;;;;;7.85;100.00;101165.00;5040595;28;20041;-72
2023/10/23 04:49:51;;;;;;;13.43;4.32;;;;;;;7.84;100.00;101168.59;5040996;28;20249;-72
2023/10/23 04:52:18;;;;;;;12.68;4.47;;;;;;;7.84;100.00;101158.75;5039363;28;20375;-72
2023/10/23 04:54:43;;;;;;;14.25;4.88;;;;;;;7.85;100.00;101162.31;5042539;28;20029;-72
2023/10/23 04:57:09;;;;;;;16.63;4.65;;;;;;;7.81;100.00;101164.28;5039793;28;20043;-72
2023/10/23 04:59:35;;;;;;;14.68;4.85;;;;;;;7.72;100.00;101162.13;5040984;28;20032;-73
2023/10/23 05:02:01;;;;;;;14.55;4.85;;;;;;;7.75;100.00;101155.75;5041993;28;20025;-72
2023/10/23 05:04:31;;;;;;;13.80;4.97;;;;;;;7.68;100.00;101164.09;5026263;28;20501;-72
2023/10/23 05:06:57;;;;;;;14.32;4.93;;;;;;;7.66;100.00;101155.31;5044788;28;20128;-72
2023/10/23 05:09:22;;;;;;;17.92;5.22;;;;;;;7.70;100.00;101156.00;5038751;28;20105;-72
2023/10/23 05:11:47;;;;;;;14.45;4.53;;;;;;;7.57;100.00;101165.66;5022924;28;20046;-72
2023/10/23 05:14:13;;;;;;;13.68;4.07;;;;;;;7.49;100.00;101163.41;5037605;28;20036;-72
2023/10/23 05:16:38;;;;;;;15.38;4.85;;;;;;;7.51;100.00;101156.16;5042055;28;20410;-72
2023/10/23 05:19:03;;;;;;;13.25;4.55;;;;;;;7.50;100.00;101157.13;5038841;28;20021;-72
2023/10/23 05:21:28;;;;;;;14.95;5.15;;;;;;;7.50;100.00;101154.47;5038727;28;20033;-73
2023/10/23 05:23:54;;;;;;;15.18;5.30;;;;;;;7.47;100.00;101152.81;5022564;28;20029;-72
2023/10/23 05:26:20;;;;;;;16.92;5.47;;;;;;;7.49;100.00;101160.75;5039533;28;20051;-72
2023/10/23 05:28:45;;;;;;;12.27;4.05;;;;;;;7.52;100.00;101157.91;5034632;28;20113;-72
2023/10/23 05:31:10;;;;;;;14.40;4.53;;;;;;;7.48;100.00;101153.66;5040810;28;20029;-72
2023/10/23 05:33:36;;;;;;;12.30;4.50;;;;;;;7.45;100.00;101152.03;5040991;28;20108;-72
2023/10/23 05:36:06;;;;;;;12.18;4.35;;;;;;;7.52;100.00;101157.91;5035240;28;20461;-72
2023/10/23 05:38:32;;;;;;;12.27;4.35;;;;;;;7.42;100.00;101151.34;5040387;28;20037;-72
2023/10/23 05:40:58;;;;;;;15.20;4.57;;;;;;;7.40;100.00;101155.91;5023330;28;20024;-72
2023/10/23 05:43:27;;;;;;;14.73;4.20;;;;;;;7.40;100.00;101154.09;5034517;28;20078;-72
2023/10/23 05:45:55;;;;;;;13.98;4.28;;;;;;;7.39;100.00;101162.19;5042561;28;20370;-72
2023/10/23 05:48:21;;;;;;;15.23;4.60;;;;;;;7.35;100.00;101157.03;5021774;28;20072;-74
2023/10/23 05:50:59;;;;;;;19.10;5.03;;;;;;;7.38;100.00;101161.34;5041317;28;20463;-73
2023/10/23 05:53:24;;;;;;;12.38;4.43;;;;;;;7.34;100.00;101165.97;5036947;28;20025;-73
2023/10/23 05:55:50;;;;;;;12.38;4.53;;;;;;;7.28;100.00;101160.97;5040638;28;20101;-74
2023/10/23 05:58:15;;;;;;;15.23;4.53;;;;;;;7.31;100.00;101160.81;5042599;28;20028;-74
2023/10/23 06:00:40;;;;;;;15.73;4.93;;;;;;;7.24;100.00;101154.06;5044457;28;20021;-74
2023/10/23 06:03:06;;;;;;;17.20;4.95;;;;;;;7.23;100.00;101160.34;5043250;28;20398;-74
2023/10/23 06:05:31;;;;;;;15.43;4.60;;;;;;;7.30;100.00;101153.72;5041609;28;20054;-74
2023/10/23 06:07:56;;;;;;;16.40;4.63;;;;;;;7.22;100.00;101150.63;5041654;28;20040;-74
2023/10/23 06:10:21;;;;;;;14.93;4.40;;;;;;;7.22;100.00;101155.97;5022508;28;20496;-74
2023/10/23 06:12:47;;;;;;;15.73;5.32;;;;;;;7.27;100.00;101155.72;5023896;28;20041;-76
2023/10/23 06:15:12;;;;;;;15.50;4.80;;;;;;;7.30;100.00;101152.88;5047324;28;20544;-76
2023/10/23 06:17:37;;;;;;;16.95;4.97;;;;;;;7.32;100.00;101162.53;5049205;28;20071;-74
2023/10/23 06:20:03;;;;;;;16.88;5.32;;;;;;;7.27;100.00;101161.91;5044157;28;20496;-75
2023/10/23 06:22:28;;;;;;;14.10;4.47;;;;;;;7.28;100.00;101157.44;5046599;28;20071;-76
2023/10/23 06:24:54;;;;;;;13.30;4.78;;;;;;;7.31;100.00;101157.28;5024734;28;20440;-75
2023/10/23 06:27:19;;;;;;;15.15;5.13;;;;;;;7.28;100.00;101155.63;5025526;28;20052;-76
2023/10/23 06:29:44;;;;;;;14.43;4.90;;;;;;;7.29;100.00;101154.69;5024581;28;20021;-76
2023/10/23 06:32:11;;;;;;;13.48;4.53;;;;;;;7.28;100.00;101165.47;5026773;28;20065;-76
2023/10/23 06:34:36;;;;;;;14.32;4.60;;;;;;;7.22;100.00;101161.31;5045872;28;20082;-76
2023/10/23 06:37:01;;;;;;;16.13;5.50;;;;;;;7.21;100.00;101164.94;5026886;28;20463;-75
2023/10/23 06:39:27;;;;;;;13.65;4.50;;;;;;;7.26;100.00;101157.53;5041087;28;20036;-75
2023/10/23 06:41:52;;;;;;;16.35;4.95;;;;;;;7.22;100.00;101157.75;5044202;28;20032;-76
2023/10/23 06:44:19;;;;;;;18.38;5.60;;;;;;;7.25;100.00;101166.50;5040595;28;20112;-76
2023/10/23 06:46:44;;;;;;;17.50;5.88;;;;;;;7.33;100.00;101163.41;5024786;28;20028;-76
2023/10/23 06:49:09;;;;;;;20.25;6.03;;;;;;;7.32;100.00;101154.53;5043633;28;20512;-75
2023/10/23 06:51:36;;;;;;;19.58;5.47;;;;;;;7.34;100.00;101157.97;5042091;28;20083;-79
2023/10/23 06:54:03;;;;;;;15.15;5.10;;;;;;;7.33;100.00;101158.06;5048852;28;20075;-77
2023/10/23 06:56:29;;;;;;;17.50;5.55;;;;;;;7.38;100.00;101160.47;5033664;28;20021;-76
2023/10/23 06:58:54;;;;;;;16.95;5.90;;;;;;;7.41;100.00;101154.94;5027619;28;20382;-76
2023/10/23 07:01:19;;;;;;;12.82;4.50;;;;;;;7.42;100.00;101149.50;5044859;28;20029;-76
2023/10/23 07:03:44;;;;;;;17.30;5.35;;;;;;;7.45;100.00;101153.84;5045600;28;20032;-76
2023/10/23 07:06:10;;;;;;;18.50;5.75;;;;;;;7.51;100.00;101151.69;5042895;28;20502;-76
2023/10/23 07:08:37;;;;;;;18.35;5.22;;;;;;;7.56;100.00;101155.94;5042897;28;20116;-76
2023/10/23 07:11:03;;;;;;;20.60;5.47;;;;;;;7.63;100.00;101154.66;5042135;28;20024;-76
2023/10/23 07:13:28;;;;;;;18.17;5.45;;;;;;;7.68;100.00;101156.09;5045862;28;20029;-75
2023/10/23 07:15:53;;;;;;;14.52;5.38;;;;;;;7.70;100.00;101146.19;5042768;28;20035;-75
2023/10/23 07:18:19;;;;;;;18.00;5.57;;;;;;;7.76;100.00;101144.97;5053293;28;20039;-74
2023/10/23 07:20:55;;;;;;;20.23;5.72;;;;;;;7.85;100.00;101143.59;5052780;28;20099;-74
2023/10/23 07:23:22;;;;;;;19.33;5.90;;;;;;;7.96;100.00;101141.13;5034145;28;20512;-74
2023/10/23 07:25:48;;;;;;;16.25;5.80;;;;;;;8.02;100.00;101145.28;5031541;28;20093;-74
2023/10/23 07:28:13;;;;;;;19.08;5.15;;;;;;;8.13;100.00;101142.84;5049667;28;20041;-75
2023/10/23 07:30:38;;;;;;;20.40;6.47;;;;;;;8.21;100.00;101145.94;5027467;28;20024;-75
2023/10/23 07:33:03;;;;;;;19.42;6.22;;;;;;;8.31;100.00;101148.91;5048626;28;20155;-75
2023/10/23 07:35:29;;;;;;;17.45;5.45;;;;;;;8.39;100.00;101149.34;5028100;28;20049;-76
2023/10/23 07:37:54;;;;;;;19.73;6.38;;;;;;;8.43;100.00;101150.00;5042282;28;20028;-74
2023/10/23 07:40:19;;;;;;;17.70;7.13;;;;;;;8.50;100.00;101154.06;5052452;28;20114;-75
2023/10/23 07:42:45;;;;;;;18.33;6.45;;;;;;;8.55;100.00;101151.13;5034708;28;20370;-74
2023/10/23 07:45:10;;;;;;;21.75;6.18;;;;;;;8.64;100.00;101166.66;5045420;28;20033;-74
2023/10/23 07:47:35;;;;;;;18.08;6.38;;;;;;;8.71;100.00;101161.78;5040622;28;20560;-74
2023/10/23 07:50:00;;;;;;;18.00;6.28;;;;;;;8.79;100.00;101158.66;5044349;28;20029;-74
2023/10/23 07:52:26;;;;;;;18.88;6.28;;;;;;;8.82;100.00;101161.16;5046403;28;20040;-74
2023/10/23 07:54:51;;;;;;;23.55;7.43;;;;;;;8.90;100.00;101165.09;5040833;28;20029;-74
2023/10/23 07:57:16;;;;;;;20.23;6.50;;;;;;;8.93;100.00;101164.00;5045775;28;20492;-74
2023/10/23 07:59:42;;;;;;;21.77;5.95;;;;;;;8.94;100.00;101159.53;5025820;28;20025;-75
2023/10/23 08:02:07;;;;;;;18.90;6.80;;;;;;;8.99;100.00;101160.97;5042814;28;20375;-75
2023/10/23 08:04:33;;;;;;;21.33;8.00;;;;;;;9.04;100.00;101148.13;5045771;28;20025;-77
2023/10/23 08:06:59;;;;;;;20.42;8.02;;;;;;;9.10;100.00;101147.75;5042207;28;20123;-66
2023/10/23 08:09:25;;;;;;;20.02;7.20;;;;;;;9.17;100.00;101145.56;5050064;28;20040;-65
2023/10/23 08:11:50;;;;;;;18.30;6.75;;;;;;;9.24;100.00;101146.91;5042619;28;20394;-65
2023/10/23 08:14:15;;;;;;;21.48;6.90;;;;;;;9.28;100.00;101142.19;5039319;28;20028;-69
2023/10/23 08:16:40;;;;;;;22.50;7.05;;;;;;;9.34;100.00;101136.47;5032506;28;20025;-71
2023/10/23 08:19:06;;;;;;;20.80;8.20;;;;;;;9.42;100.00;101138.63;5017274;28;20412;-70
2023/10/23 08:21:32;;;;;;;20.80;7.60;;;;;;;9.45;100.00;101143.81;5044907;28;20029;-70
2023/10/23 08:23:58;;;;;;;21.20;7.43;;;;;;;9.49;100.00;101137.28;5026799;28;20025;-73
2023/10/23 08:26:23;;;;;;;22.35;7.63;;;;;;;9.53;100.00;101136.13;5037636;28;20382;-72
2023/10/23 08:28:49;;;;;;;19.90;7.20;;;;;;;9.60;100.00;101148.19;5049266;28;20063;-73
2023/10/23 08:31:15;;;;;;;20.55;7.30;;;;;;;9.64;100.00;101150.69;5043966;28;20032;-74
2023/10/23 08:33:41;;;;;;;24.52;7.93;;;;;;;9.67;100.00;101151.34;5043761;28;20040;-73
2023/10/23 08:36:06;;;;;;;19.80;7.13;;;;;;;9.70;100.00;101151.13;5029698;28;20029;-73
2023/10/23 08:38:33;;;;;;;21.83;7.82;;;;;;;9.75;100.00;101146.34;5043844;28;20033;-73
2023/10/23 08:41:01;;;;;;;24.60;8.45;;;;;;;9.80;100.00;101148.72;5044411;28;20543;-73
2023/10/23 08:43:27;;;;;;;19.35;7.03;;;;;;;9.87;100.00;101154.53;5044816;28;20055;-73
2023/10/23 08:45:53;;;;;;;21.75;7.13;;;;;;;9.89;100.00;101168.72;5031642;28;20013;-73
2023/10/23 08:48:19;;;;;;;20.73;8.05;;;;;;;9.94;100.00;101155.84;5045734;28;20508;-73
2023/10/23 08:50:46;;;;;;;21.75;7.47;;;;;;;10.00;100.00;101152.78;5046655;28;20101;-73
2023/10/23 08:53:14;;;;;;;21.08;7.72;;;;;;;10.03;100.00;101147.22;5031543;28;20021;-73
2023/10/23 08:55:41;;;;;;;20.65;8.13;;;;;;;10.07;100.00;101143.38;5028634;28;20478;-74
2023/10/23 08:58:06;;;;;;;22.05;7.80;;;;;;;10.09;100.00;101146.78;5046022;28;20115;-74
2023/10/23 09:00:33;;;;;;;19.92;7.22;;;;;;;10.13;100.00;101142.94;5041858;28;20171;-74
2023/10/23 09:02:59;;;;;;;20.33;7.55;;;;;;;10.15;100.00;101149.06;5051075;28;20025;-73
2023/10/23 09:05:25;;;;;;;22.55;7.60;;;;;;;10.17;100.00;101140.91;5035766;28;20025;-73
2023/10/23 09:07:51;;;;;;;19.48;6.63;;;;;;;10.22;100.00;101138.78;5050105;28;20121;-74
2023/10/23 09:10:16;;;;;;;24.45;7.15;;;;;;;10.28;100.00;101134.84;5058242;28;20028;-74
2023/10/23 09:12:41;;;;;;;19.17;6.90;;;;;;;10.33;100.00;101135.38;5052027;28;20029;-73
2023/10/23 09:15:17;;;;;;;20.83;7.10;;;;;;;10.37;100.00;101125.31;5054894;28;20696;-74
2023/10/23 09:17:43;;;;;;;24.30;7.22;;;;;;;10.41;100.00;101130.38;5051653;28;20033;-74
2023/10/23 09:20:22;;;;;;;21.42;6.95;;;;;;;10.46;100.00;101124.69;5046096;28;20025;-75
2023/10/23 09:22:50;;;;;;;18.02;7.10;;;;;;;10.51;100.00;101127.03;5040867;28;20025;-75
2023/10/23 09:25:17;;;;;;;21.00;7.43;;;;;;;10.55;100.00;101121.34;5041030;28;20029;-75
2023/10/23 09:27:42;;;;;;;20.88;6.82;;;;;;;10.58;100.00;101122.97;5038814;28;20379;-77
2023/10/23 09:30:09;;;;;;;19.13;6.85;;;;;;;10.62;100.00;101124.50;5022345;28;20090;-77
2023/10/23 09:32:36;;;;;;;23.73;7.53;;;;;;;10.64;100.00;101122.53;5024587;28;20029;-75
2023/10/23 09:35:03;;;;;;;21.02;7.03;;;;;;;10.69;100.00;101108.78;5020343;28;20113;-75
2023/10/23 09:37:29;;;;;;;23.27;7.00;;;;;;;10.73;100.00;101105.78;5036404;28;20116;-75
2023/10/23 09:39:59;;;;;;;26.30;7.53;;;;;;;10.75;100.00;101109.22;5038465;28;20491;-75
2023/10/23 09:42:33;;;;;;;21.50;6.93;;;;;;;10.80;100.00;101098.13;5042610;28;20108;-75
2023/10/23 09:45:04;;;;;;;19.02;6.78;;;;;;;10.85;100.00;101098.69;5024614;28;20116;-75
2023/10/23 09:47:30;;;;;;;18.60;6.88;;;;;;;10.90;100.00;101092.97;5019178;28;20266;-75
2023/10/23 09:49:55;;;;;;;18.00;6.60;;;;;;;10.95;100.00;101097.06;5029662;28;20033;-75
2023/10/23 09:52:27;;;;;;;20.58;7.93;;;;;;;11.01;100.00;101103.81;5021930;28;20029;-75
2023/10/23 09:55:01;;;;;;;20.02;7.15;;;;;;;11.04;100.00;101109.00;5024653;28;20544;-75
2023/10/23 09:57:43;;;;;;;22.88;7.28;;;;;;;11.06;100.00;101112.44;5043085;28;20035;-75
2023/10/23 10:00:14;;;;;;;19.13;6.30;;;;;;;11.11;100.00;101115.69;5020704;28;20103;-75
2023/10/23 10:02:43;;;;;;;23.13;6.57;;;;;;;11.13;100.00;101108.34;5027478;28;20112;-75
2023/10/23 10:05:09;;;;;;;18.88;6.35;;;;;;;11.16;100.00;101102.75;5031457;28;20121;-75
2023/10/23 10:08:06;;;;;;;16.55;5.55;;;;;;;11.21;100.00;101105.09;5021945;28;20045;-75
2023/10/23 10:10:32;;;;;;;18.92;6.40;;;;;;;11.25;100.00;101105.75;5023873;28;20040;-75
2023/10/23 10:12:58;;;;;;;22.40;5.82;;;;;;;11.25;100.00;101095.84;5023283;28;20033;-75
2023/10/23 10:15:24;;;;;;;19.92;6.05;;;;;;;11.28;100.00;101094.75;5047112;28;20675;-75
2023/10/23 10:17:50;;;;;;;20.98;6.10;;;;;;;11.31;100.00;101091.84;5047918;28;20033;-75
2023/10/23 10:20:21;;;;;;;16.85;5.72;;;;;;;11.34;100.00;101089.78;5043933;28;20100;-75
2023/10/23 10:22:53;;;;;;;25.83;6.57;;;;;;;11.37;100.00;101091.38;5021757;28;20043;-75
2023/10/23 10:25:20;;;;;;;23.02;7.38;;;;;;;11.42;100.00;101091.06;5035693;28;20026;-75
2023/10/23 10:27:58;;;;;;;21.73;5.97;;;;;;;11.43;100.00;101093.63;5018352;28;20033;-75
2023/10/23 10:30:40;;;;;;;19.15;5.63;;;;;;;11.47;100.00;101078.13;5042458;28;20254;-74
2023/10/23 10:33:14;;;;;;;19.55;6.32;;;;;;;11.49;100.00;101079.75;5027927;28;20047;-74
2023/10/23 10:35:40;;;;;;;19.50;5.65;;;;;;;11.53;100.00;101074.97;5044006;28;20057;-74
2023/10/23 10:38:10;;;;;;;17.52;5.55;;;;;;;11.58;100.00;101077.31;5027052;28;20021;-74
2023/10/23 10:40:56;;;;;;;18.75;6.13;;;;;;;11.63;100.00;101067.09;5025270;28;20027;-74
2023/10/23 10:43:24;;;;;;;17.63;6.30;;;;;;;11.65;100.00;101075.91;5016014;28;20025;-74
2023/10/23 10:45:49;;;;;;;23.10;6.97;;;;;;;11.66;100.00;101056.09;5026984;28;20044;-74
2023/10/23 10:48:15;;;;;;;18.95;6.50;;;;;;;11.69;100.00;101056.72;5044527;28;20032;-72
2023/10/23 10:50:42;;;;;;;25.10;6.97;;;;;;;11.74;100.00;101052.81;5045360;28;20033;-72
2023/10/23 10:53:12;;;;;;;21.23;6.70;;;;;;;11.79;100.00;101050.66;5043152;28;20044;-71
2023/10/23 10:55:37;;;;;;;19.42;6.88;;;;;;;11.84;100.00;101041.22;5044689;28;20121;-71
2023/10/23 10:58:03;;;;;;;24.92;6.97;;;;;;;11.88;100.00;101039.19;5039560;28;20108;-71
2023/10/23 11:00:31;;;;;;;23.95;7.95;;;;;;;11.93;100.00;101036.13;5043470;28;20028;-71
2023/10/23 11:02:56;;;;;;;20.63;6.38;;;;;;;11.95;100.00;101024.31;5044051;28;20021;-71
2023/10/23 11:05:22;;;;;;;19.52;6.75;;;;;;;12.01;100.00;101025.66;5043188;28;20555;-71
2023/10/23 11:07:49;;;;;;;25.45;7.45;;;;;;;12.02;100.00;101011.19;5049601;28;20036;-71
2023/10/23 11:10:15;;;;;;;26.50;7.70;;;;;;;12.06;100.00;100999.22;5046914;28;20040;-71